createdAt,value
2022-09-21T15:15:21.043Z,4.00
2022-09-21T15:17:59.802Z,4.57
2022-09-21T15:20:29.627Z,3.85
2022-09-21T15:23:01.370Z,4.15
2022-09-21T15:25:33.250Z,4.38
2022-09-21T15:28:00.831Z,4.20
2022-09-21T15:30:33.265Z,4.88
2022-09-21T15:33:02.140Z,3.55
2022-09-21T15:35:32.731Z,3.83
2022-09-21T15:38:01.476Z,4.30
2022-09-21T15:40:32.973Z,3.80
2022-09-21T15:43:19.661Z,3.65
2022-09-21T15:45:54.713Z,3.95
2022-09-21T15:48:23.602Z,4.03
2022-09-21T15:50:59.023Z,3.58
2022-09-21T15:53:31.194Z,4.00
2022-09-21T15:56:01.724Z,4.00
2022-09-21T15:58:38.744Z,3.72
2022-09-21T16:01:12.163Z,3.60
2022-09-21T16:03:40.209Z,4.28
2022-09-21T16:06:38.828Z,3.50
2022-09-21T16:09:43.019Z,3.90
2022-09-21T16:12:28.889Z,3.88
2022-09-21T16:15:04.128Z,3.88
2022-09-21T16:17:38.627Z,3.50
2022-09-21T16:20:14.799Z,3.72
2022-09-21T16:22:47.697Z,3.45
2022-09-21T16:25:16.134Z,3.53
2022-09-21T16:28:02.237Z,3.13
2022-09-21T16:30:44.938Z,3.40
2022-09-21T16:33:47.504Z,3.17
2022-09-21T16:36:17.298Z,2.88
2022-09-21T16:38:47.367Z,3.72
2022-09-21T16:41:17.696Z,3.90
2022-09-21T16:43:45.253Z,3.90
2022-09-21T16:46:13.707Z,2.90
2022-09-21T16:48:41.151Z,3.40
2022-09-21T16:51:15.960Z,3.53
2022-09-21T16:53:43.008Z,3.08
2022-09-21T16:56:14.315Z,3.00
2022-09-21T16:58:43.753Z,3.90
2022-09-21T17:01:18.334Z,2.95
2022-09-21T17:03:47.264Z,2.95
2022-09-21T17:06:19.691Z,3.10
2022-09-21T17:08:48.273Z,3.25
2022-09-21T17:11:20.269Z,2.72
2022-09-21T17:13:48.702Z,2.40
2022-09-21T17:16:18.313Z,2.72
2022-09-21T17:18:46.586Z,2.38
2022-09-21T17:21:14.723Z,2.70
2022-09-21T17:23:42.273Z,2.42
2022-09-21T17:26:17.761Z,2.20
2022-09-21T17:28:45.548Z,2.28
2022-09-21T17:31:16.515Z,1.95
2022-09-21T17:33:47.853Z,1.90
2022-09-21T17:36:16.105Z,2.17
2022-09-21T17:38:44.302Z,2.08
2022-09-21T17:41:39.762Z,2.13
2022-09-21T17:44:22.207Z,1.83
2022-09-21T17:46:55.316Z,1.60
2022-09-21T17:49:22.645Z,1.88
2022-09-21T17:52:22.158Z,1.70
2022-09-21T17:54:51.370Z,1.67
2022-09-21T17:57:27.357Z,1.98
2022-09-21T18:00:10.380Z,1.70
2022-09-21T18:02:37.565Z,1.73
2022-09-21T18:05:16.073Z,1.90
2022-09-21T18:07:43.358Z,1.92
2022-09-21T18:10:14.186Z,2.10
2022-09-21T18:13:16.093Z,2.05
2022-09-21T18:16:03.965Z,1.88
2022-09-21T18:18:59.351Z,2.10
2022-09-21T18:21:27.983Z,2.28
2022-09-21T18:24:14.946Z,2.08
2022-09-21T18:26:42.709Z,2.13
2022-09-21T18:29:38.984Z,1.80
2022-09-21T18:32:43.264Z,2.33
2022-09-21T18:35:28.457Z,2.47
2022-09-21T18:38:22.846Z,2.00
2022-09-21T18:41:23.206Z,2.45
2022-09-21T18:44:13.140Z,2.08
2022-09-21T18:47:05.873Z,2.35
2022-09-21T18:49:33.339Z,2.47
2022-09-21T18:52:09.597Z,2.30
2022-09-21T18:54:36.755Z,2.65
2022-09-21T18:57:13.031Z,2.58
2022-09-21T18:59:41.108Z,2.65
2022-09-21T19:02:17.701Z,2.45
2022-09-21T19:04:45.850Z,2.60
2022-09-21T19:07:18.667Z,2.65
2022-09-21T19:09:45.716Z,2.83
2022-09-21T19:12:15.764Z,2.55
2022-09-21T19:14:48.614Z,2.60
2022-09-21T19:17:56.374Z,2.95
2022-09-21T19:20:50.105Z,2.53
2022-09-21T19:24:03.381Z,2.72
2022-09-21T19:26:37.074Z,2.97
2022-09-21T19:29:19.046Z,3.25
2022-09-21T19:31:46.340Z,3.35
2022-09-21T19:34:18.605Z,2.60
2022-09-21T19:36:49.606Z,2.83
2022-09-21T19:39:17.280Z,4.18
2022-09-21T19:41:55.490Z,3.42
2022-09-21T19:44:51.528Z,3.22
2022-09-21T19:47:48.314Z,3.58
2022-09-21T19:50:21.723Z,2.97
2022-09-21T19:52:49.274Z,3.60
2022-09-21T19:55:37.758Z,3.22
2022-09-21T19:58:24.494Z,3.45
2022-09-21T20:00:55.845Z,3.00
2022-09-21T20:03:44.231Z,3.70
2022-09-21T20:06:37.148Z,3.40
2022-09-21T20:09:15.116Z,3.25
2022-09-21T20:11:56.472Z,3.20
2022-09-21T20:14:32.542Z,3.28
2022-09-21T20:17:02.234Z,3.42
2022-09-21T20:19:48.231Z,3.05
2022-09-21T20:22:17.864Z,3.40
2022-09-21T20:24:56.892Z,3.30
2022-09-21T20:27:47.109Z,2.60
2022-09-21T20:30:16.275Z,2.60
2022-09-21T20:32:48.953Z,2.20
2022-09-21T20:35:23.733Z,2.60
2022-09-21T20:37:56.481Z,2.65
2022-09-21T20:40:28.804Z,2.95
2022-09-21T20:42:57.499Z,2.80
2022-09-21T20:45:24.941Z,2.72
2022-09-21T20:47:53.608Z,2.67
2022-09-21T20:50:22.081Z,2.65
2022-09-21T20:52:49.165Z,2.70
2022-09-21T20:55:17.794Z,2.70
2022-09-21T20:57:45.027Z,2.13
2022-09-21T21:00:16.873Z,2.35
2022-09-21T21:02:44.121Z,2.00
2022-09-21T21:05:11.420Z,2.03
2022-09-21T21:07:41.216Z,2.40
2022-09-21T21:10:11.992Z,1.50
2022-09-21T21:12:42.157Z,2.30
2022-09-21T21:15:13.006Z,2.00
2022-09-21T21:17:41.091Z,1.80
2022-09-21T21:20:09.662Z,2.10
2022-09-21T21:22:37.061Z,2.47
2022-09-21T21:25:04.873Z,1.98
2022-09-21T21:27:32.121Z,2.42
2022-09-21T21:30:00.327Z,2.10
2022-09-21T21:32:28.594Z,2.25
2022-09-21T21:34:56.032Z,2.50
2022-09-21T21:37:25.483Z,2.00
2022-09-21T21:39:53.803Z,1.70
2022-09-21T21:42:21.902Z,2.03
2022-09-21T21:44:50.854Z,1.88
2022-09-21T21:47:38.610Z,2.28
2022-09-21T21:50:06.065Z,2.05
2022-09-21T21:52:33.072Z,2.13
2022-09-21T21:55:00.145Z,1.90
2022-09-21T21:57:27.142Z,2.40
2022-09-21T21:59:54.957Z,2.00
2022-09-21T22:02:22.092Z,2.13
2022-09-21T22:04:49.198Z,1.75
2022-09-21T22:07:16.269Z,2.20
2022-09-21T22:09:43.316Z,1.90
2022-09-21T22:12:12.044Z,2.10
2022-09-21T22:14:40.142Z,2.22
2022-09-21T22:17:07.187Z,1.80
2022-09-21T22:19:34.278Z,1.80
2022-09-21T22:22:01.424Z,1.73
2022-09-21T22:24:28.530Z,1.80
2022-09-21T22:26:55.938Z,1.83
2022-09-21T22:29:23.063Z,1.92
2022-09-21T22:31:50.821Z,2.13
2022-09-21T22:34:20.330Z,1.90
2022-09-21T22:36:47.398Z,1.90
2022-09-21T22:39:14.513Z,2.30
2022-09-21T22:41:42.595Z,1.60
2022-09-21T22:44:10.868Z,1.90
2022-09-21T22:46:39.274Z,1.88
2022-09-21T22:49:06.745Z,1.98
2022-09-21T22:51:34.484Z,1.83
2022-09-21T22:54:02.081Z,2.30
2022-09-21T22:56:31.367Z,1.85
2022-09-21T22:59:00.609Z,2.13
2022-09-21T23:01:30.572Z,1.52
2022-09-21T23:04:03.778Z,1.85
2022-09-21T23:06:33.620Z,2.00
2022-09-21T23:09:03.084Z,1.98
2022-09-21T23:11:33.544Z,1.63
2022-09-21T23:14:00.946Z,1.65
2022-09-21T23:16:29.332Z,1.70
2022-09-21T23:18:57.989Z,1.45
2022-09-21T23:21:28.417Z,1.60
2022-09-21T23:24:01.431Z,1.55
2022-09-21T23:26:30.641Z,1.30
2022-09-21T23:28:59.948Z,1.15
2022-09-21T23:31:28.689Z,1.20
2022-09-21T23:33:58.612Z,1.10
2022-09-21T23:36:28.563Z,1.75
2022-09-21T23:38:56.092Z,1.40
2022-09-21T23:41:31.871Z,1.30
2022-09-21T23:43:59.311Z,1.45
2022-09-21T23:46:29.841Z,1.48
2022-09-21T23:48:58.166Z,1.60
2022-09-21T23:51:25.917Z,1.33
2022-09-21T23:53:53.867Z,1.27
2022-09-21T23:56:22.863Z,1.58
2022-09-21T23:58:52.062Z,1.80
